createdAt,value
2018-02-09T00:02:40.388Z,0.18
2018-02-09T00:07:41.771Z,0.16
2018-02-09T00:12:43.120Z,0.08
2018-02-09T00:17:44.412Z,0.07
2018-02-09T00:22:52.562Z,0.07
2018-02-09T00:27:55.528Z,0.00
2018-02-09T00:32:56.931Z,0.01
2018-02-09T00:37:58.302Z,-0.04
2018-02-09T00:42:59.836Z,-0.06
2018-02-09T00:48:01.229Z,-0.11
2018-02-09T00:53:02.536Z,-0.09
2018-02-09T00:58:03.925Z,-0.09
2018-02-09T01:03:05.264Z,-0.13
2018-02-09T01:08:06.621Z,-0.14
2018-02-09T01:13:07.930Z,-0.17
2018-02-09T01:18:10.040Z,-0.18
2018-02-09T01:23:12.118Z,-0.17
2018-02-09T01:28:13.526Z,-0.19
2018-02-09T01:33:15.611Z,-0.24
2018-02-09T01:38:16.972Z,-0.26
2018-02-09T01:43:18.337Z,-0.29
2018-02-09T01:48:19.754Z,-0.41
2018-02-09T01:53:21.082Z,-0.35
2018-02-09T01:58:22.438Z,-0.37
2018-02-09T02:03:23.777Z,-0.42
2018-02-09T02:08:25.852Z,-0.44
2018-02-09T02:13:27.151Z,-0.49
2018-02-09T02:18:28.464Z,-0.45
2018-02-09T02:23:30.607Z,-0.47
2018-02-09T02:28:31.966Z,-0.51
2018-02-09T02:33:33.354Z,-0.50
2018-02-09T02:38:35.418Z,-0.48
2018-02-09T02:43:36.765Z,-0.53
2018-02-09T02:48:38.110Z,-0.60
2018-02-09T02:53:39.476Z,-0.55
2018-02-09T02:58:40.878Z,-0.55
2018-02-09T03:03:42.296Z,-0.48
2018-02-09T03:08:44.367Z,-0.46
2018-02-09T03:13:45.667Z,-0.49
2018-02-09T03:18:47.020Z,-0.45
2018-02-09T03:23:48.338Z,-0.48
2018-02-09T03:28:49.641Z,-0.48
2018-02-09T03:33:50.998Z,-0.65
2018-02-09T03:38:52.380Z,-0.65
2018-02-09T03:43:53.734Z,-0.74
2018-02-09T03:48:55.799Z,-0.74
2018-02-09T03:53:57.231Z,-0.73
2018-02-09T03:58:58.548Z,-0.75
2018-02-09T04:03:59.944Z,-0.80
2018-02-09T04:09:01.329Z,-0.76
2018-02-09T04:14:02.776Z,-0.80
2018-02-09T04:19:04.147Z,-0.76
2018-02-09T04:24:05.511Z,-0.75
2018-02-09T04:29:06.896Z,-0.72
2018-02-09T04:34:08.231Z,-0.64
2018-02-09T04:39:09.539Z,-0.71
2018-02-09T04:44:10.885Z,-0.62
2018-02-09T04:49:12.216Z,-0.66
2018-02-09T04:54:14.468Z,-0.67
2018-02-09T04:59:15.805Z,-0.67
2018-02-09T05:04:17.244Z,-0.65
2018-02-09T05:09:18.651Z,-0.66
2018-02-09T05:14:19.991Z,-0.63
2018-02-09T05:19:22.055Z,-0.73
2018-02-09T05:24:23.423Z,-0.72
2018-02-09T05:29:24.769Z,-0.77
2018-02-09T05:34:26.122Z,-0.78
2018-02-09T05:39:27.584Z,-0.90
2018-02-09T05:44:28.959Z,-0.92
2018-02-09T05:49:31.152Z,-0.97
2018-02-09T05:54:32.729Z,-1.00
2018-02-09T05:59:34.079Z,-1.12
2018-02-09T06:04:35.493Z,-1.13
2018-02-09T06:09:36.854Z,-1.12
2018-02-09T06:14:38.195Z,-1.14
2018-02-09T06:19:39.609Z,-1.15
2018-02-09T06:24:41.661Z,-1.28
2018-02-09T06:29:43.008Z,-1.32
2018-02-09T06:34:45.062Z,-1.28
2018-02-09T06:39:46.419Z,-1.14
2018-02-09T06:44:47.746Z,-1.13
2018-02-09T06:49:49.115Z,-1.24
2018-02-09T06:54:50.537Z,-1.21
2018-02-09T06:59:51.873Z,-1.18
2018-02-09T07:04:53.960Z,-1.06
2018-02-09T07:09:56.039Z,-1.03
2018-02-09T07:14:57.371Z,-0.94
2018-02-09T07:19:59.414Z,-0.90
2018-02-09T07:25:00.777Z,-0.79
2018-02-09T07:30:02.131Z,-0.68
2018-02-09T07:35:03.476Z,-0.56
2018-02-09T07:40:04.813Z,-0.43
2018-02-09T07:45:06.120Z,-0.17
2018-02-09T07:50:08.749Z,0.08
2018-02-09T07:55:10.709Z,0.20
2018-02-09T08:00:12.206Z,0.33
2018-02-09T08:05:13.519Z,0.42
2018-02-09T08:10:15.186Z,0.55
2018-02-09T08:15:16.826Z,0.68
2018-02-09T08:20:18.440Z,0.84
2018-02-09T08:25:20.008Z,0.94
2018-02-09T08:30:21.436Z,1.07
2018-02-09T08:35:22.825Z,1.15
2018-02-09T08:40:24.422Z,1.29
2018-02-09T08:45:25.731Z,1.45
2018-02-09T08:50:27.051Z,1.44
2018-02-09T08:55:28.385Z,1.58
2018-02-09T09:00:29.783Z,1.71
2018-02-09T09:05:31.207Z,1.81
2018-02-09T09:10:32.578Z,1.92
2018-02-09T09:15:33.928Z,2.06
2018-02-09T09:20:36.082Z,2.23
2018-02-09T09:25:37.412Z,2.26
2018-02-09T09:30:38.740Z,2.24
2018-02-09T09:35:40.101Z,2.43
2018-02-09T09:40:42.186Z,2.64
2018-02-09T09:45:50.442Z,2.67
2018-02-09T09:50:51.854Z,2.80
2018-02-09T09:55:53.916Z,2.82
2018-02-09T10:00:55.267Z,2.87
2018-02-09T10:05:56.593Z,2.99
2018-02-09T10:10:57.937Z,2.94
2018-02-09T10:15:59.304Z,2.86
2018-02-09T10:21:00.676Z,3.13
2018-02-09T10:26:02.079Z,3.18
2018-02-09T10:31:03.566Z,3.41
2018-02-09T10:36:04.915Z,3.52
2018-02-09T10:41:06.237Z,3.56
2018-02-09T10:46:07.629Z,3.67
2018-02-09T10:51:08.987Z,3.78
2018-02-09T10:56:10.662Z,3.88
2018-02-09T11:06:47.903Z,4.00
2018-02-09T11:11:49.575Z,4.08
2018-02-09T11:16:50.936Z,4.23
2018-02-09T11:21:52.263Z,4.35
2018-02-09T11:26:53.580Z,4.35
2018-02-09T11:31:54.930Z,4.45
2018-02-09T11:36:56.275Z,4.57
2018-02-09T11:41:58.418Z,4.71
2018-02-09T11:46:59.788Z,4.62
2018-02-09T11:52:01.140Z,4.75
2018-02-09T11:57:02.524Z,4.81
2018-02-09T12:02:03.851Z,5.02
2018-02-09T12:07:05.939Z,4.92
2018-02-09T12:12:07.289Z,4.85
2018-02-09T12:17:08.654Z,4.97
2018-02-09T12:22:10.032Z,4.96
2018-02-09T12:27:11.923Z,4.99
2018-02-09T12:32:14.309Z,4.95
2018-02-09T12:37:15.888Z,5.08
2018-02-09T12:42:17.559Z,5.10
2018-02-09T12:47:19.131Z,4.90
2018-02-09T12:52:20.739Z,4.77
2018-02-09T12:57:22.119Z,4.68
2018-02-09T13:02:24.243Z,4.80
2018-02-09T13:07:25.622Z,4.69
2018-02-09T13:12:45.470Z,4.70
2018-02-09T13:17:46.982Z,4.83
2018-02-09T13:23:06.888Z,4.79
2018-02-09T13:28:08.463Z,4.85
2018-02-09T13:33:31.156Z,5.15
2018-02-09T13:38:33.900Z,5.27
2018-02-09T13:43:36.011Z,5.39
2018-02-09T13:48:37.866Z,5.39
2018-02-09T13:53:40.636Z,5.45
2018-02-09T13:58:42.336Z,5.59
2018-02-09T14:03:43.804Z,5.59
2018-02-09T14:08:45.383Z,5.42
2018-02-09T14:13:49.106Z,5.37
2018-02-09T14:18:50.833Z,5.34
2018-02-09T14:23:53.119Z,5.29
2018-02-09T14:28:55.350Z,5.38
2018-02-09T14:33:56.826Z,5.37
2018-02-09T14:38:58.237Z,5.41
2018-02-09T14:44:00.497Z,5.44
2018-02-09T14:49:02.174Z,5.44
2018-02-09T14:54:03.781Z,5.40
2018-02-09T14:59:05.544Z,5.45
2018-02-09T15:04:07.035Z,5.39
2018-02-09T15:09:09.301Z,5.31
2018-02-09T15:14:11.226Z,5.24
2018-02-09T15:19:12.645Z,5.24
2018-02-09T15:24:14.862Z,5.22
2018-02-09T15:29:17.135Z,5.12
2018-02-09T15:34:18.553Z,5.04
2018-02-09T15:39:20.726Z,4.93
2018-02-09T15:44:22.235Z,4.80
2018-02-09T15:49:23.701Z,4.78
2018-02-09T15:54:25.102Z,4.69
2018-02-09T15:59:26.569Z,4.54
2018-02-09T16:04:28.006Z,4.47
2018-02-09T16:09:29.352Z,4.18
2018-02-09T16:14:30.662Z,4.03
2018-02-09T16:19:32.015Z,3.89
2018-02-09T16:24:34.103Z,3.79
2018-02-09T16:29:35.436Z,3.70
2018-02-09T16:34:36.808Z,3.60
2018-02-09T16:39:38.131Z,3.48
2018-02-09T16:44:39.508Z,3.38
2018-02-09T16:49:40.840Z,3.32
2018-02-09T16:54:42.336Z,3.23
2018-02-09T16:59:43.722Z,3.20
2018-02-09T17:04:45.102Z,3.19
2018-02-09T17:09:46.527Z,3.16
2018-02-09T17:14:47.852Z,3.14
2018-02-09T17:19:49.218Z,3.10
2018-02-09T17:24:51.526Z,3.03
2018-02-09T17:29:54.510Z,2.97
2018-02-09T17:34:56.528Z,2.90
2018-02-09T17:39:57.970Z,2.86
2018-02-09T17:45:00.124Z,2.82
2018-02-09T17:50:01.470Z,2.75
2018-02-09T17:55:02.903Z,2.71
2018-02-09T18:00:04.321Z,2.62
2018-02-09T18:05:05.665Z,2.52
2018-02-09T18:10:07.221Z,2.48
2018-02-09T18:15:08.563Z,2.45
2018-02-09T18:20:10.035Z,2.49
2018-02-09T18:25:11.687Z,2.47
2018-02-09T18:30:13.088Z,2.45
2018-02-09T18:35:15.043Z,2.45
2018-02-09T18:40:16.503Z,2.45
2018-02-09T18:45:17.862Z,2.43
2018-02-09T18:50:19.315Z,2.47
2018-02-09T18:55:20.908Z,2.42
2018-02-09T19:00:22.252Z,2.46
2018-02-09T19:05:23.683Z,2.41
2018-02-09T19:10:25.059Z,2.45
2018-02-09T19:15:26.380Z,2.38
2018-02-09T19:20:27.734Z,2.49
2018-02-09T19:25:29.152Z,2.49
2018-02-09T19:30:30.496Z,2.54
2018-02-09T19:35:31.871Z,2.53
2018-02-09T19:40:33.595Z,2.52
2018-02-09T19:45:35.766Z,2.42
2018-02-09T19:50:37.123Z,2.34
2018-02-09T19:55:38.472Z,2.31
2018-02-09T20:00:40.643Z,2.28
2018-02-09T20:05:42.083Z,2.19
2018-02-09T20:10:44.148Z,2.19
2018-02-09T20:15:45.554Z,2.22
2018-02-09T20:20:46.916Z,2.21
2018-02-09T20:25:48.258Z,2.07
2018-02-09T20:30:50.410Z,2.00
2018-02-09T20:35:51.769Z,1.89
2018-02-09T20:40:53.112Z,1.82
2018-02-09T20:45:55.212Z,1.77
2018-02-09T20:50:56.579Z,1.75
2018-02-09T20:55:58.036Z,1.71
2018-02-09T21:01:00.128Z,1.68
2018-02-09T21:06:01.529Z,1.72
2018-02-09T21:11:03.707Z,1.62
2018-02-09T21:16:05.092Z,1.59
2018-02-09T21:21:06.438Z,1.59
2018-02-09T21:26:08.146Z,1.49
2018-02-09T21:31:09.522Z,1.39
2018-02-09T21:36:10.927Z,1.32
2018-02-09T21:41:12.243Z,1.23
2018-02-09T21:46:13.680Z,1.18
2018-02-09T21:51:15.808Z,1.10
2018-02-09T21:56:17.131Z,0.93
2018-02-09T22:01:18.471Z,0.85
2018-02-09T22:06:20.583Z,0.81
2018-02-09T22:11:22.628Z,0.65
2018-02-09T22:16:23.976Z,0.68
2018-02-09T22:21:26.059Z,0.60
2018-02-09T22:26:27.410Z,0.65
2018-02-09T22:31:28.766Z,0.78
2018-02-09T22:36:31.046Z,0.86
2018-02-09T22:41:32.513Z,0.97
2018-02-09T22:46:34.908Z,1.07
2018-02-09T22:51:36.376Z,1.08
2018-02-09T22:56:38.115Z,0.91
2018-02-09T23:01:39.645Z,0.91
2018-02-09T23:06:41.080Z,0.93
2018-02-09T23:11:42.575Z,0.99
2018-02-09T23:16:43.988Z,1.01
2018-02-09T23:21:45.609Z,1.08
2018-02-09T23:26:46.947Z,1.04
2018-02-09T23:31:48.323Z,1.02
2018-02-09T23:36:50.402Z,1.02
2018-02-09T23:41:51.903Z,1.06
2018-02-09T23:46:53.247Z,1.06
2018-02-09T23:51:54.569Z,1.06
2018-02-09T23:56:55.892Z,1.06
